Terminal Aerodrome Forecast
Issued by NWS

Home | Current Version | Previous Version | Text Only | Print | Product List | Glossary On
Versions: 1 2 3 4 5 6 7 8 9 10 11 12 13 14 15 16
000
FTUS42 KILM 210200 AAA
TAFCRE
TAF AMD
KCRE 210226Z 2102/2124 01006KT P6SM -RA VCSH SCT035 BKN110
      TEMPO 2102/2106 5SM -RA BKN035
     FM210600 02010KT 6SM -RA BKN025
     FM211200 34012KT P6SM SCT030=

USA.gov is the U.S. government's official web portal to all federal, state and local government web resources and services.